Lake Charles, LA (70605)

2:38 PM CST on January 30, 2015 (GMT -0600)
Lake Charles | Change Station
CLOSE
Current Station
Personal Weather Station
Location: Lake Charles, LA
Elevation: 10 ft
Nearby Weather Stations
Active Advisory: Flood Warning

Elev 10 ft 30.19 °N, 93.23 °W | Updated 6 seconds ago

Clear
Clear
63.0 °F
Feels Like 63.0 °F
N
2.0
Wind Variable Wind from ENE
Gusts 7.0 mph

Today
High -- | Low -- °F
--% Chance of Precip.
Yesterday
High -- | Low -- °F
Precip. -- in
7:04 AM 5:48 PM
Waxing Gibbous, 85% visible
Pressure 30.37 in
Visibility 10.0 miles
Clouds Clear
Dew Point 36 °F
Humidity 36%
Rainfall 0.00 in
Snow Depth Not available.
UV 5 out of 12
Pollen 8.70 out of 12
Air Quality Not available.
Flu Activity Not available.
METAR KLCH 301953Z 05008KT 10SM CLR 16/01 A3034 RMK AO2 SLP282 T01560011

More Conditions Fewer Conditions

Pressure 30.37 in
Visibility 10.0 miles
Clouds Clear
Dew Point 36 °F
Humidity 36%
Rainfall 0.00 in
Snow Depth Not available.
UV 5 out of 12
Pollen 8.70 out of 12
Air Quality Not available.
Flu Activity Not available.
METAR KLCH 301953Z 05008KT 10SM CLR 16/01 A3034 RMK AO2 SLP282 T01560011

More Conditions Fewer Conditions

10-Day Weather Forecast

Almanac

Astronomy

Jan. 30, 2015 Rise Set
Actual Time
Civil Twilight
Nautical Twilight
Astronomical Twilight
Moon
Length of Visible Light
Length of Day
Tomorrow will be .
, % of the Moon is Illuminated

Today's Extremes

State Highs State Lows

Community

WunderPhotos

Upload Photos

1,791,889 photos uploaded!

WunderBlogs® & News

Nearby

Air Quality

  Air Quality AQ Index Pollutant
Not available.

Snow Depth

Station Depth Elevation

Earthquake Activity

City Distance Mag. Time & Date
Minimum magnitude displayed is 2.5.

Coastal Water Temperatures

Place Temperature

Nearby Weather Stations